sensor_id;sensor_type;location;lat;lon;timestamp;temperature;humidity
6486;DHT22;3276;48.490;9.222;2023-07-28T00:00:20;15.70;37.60
6486;DHT22;3276;48.490;9.222;2023-07-28T00:02:46;15.60;38.30
6486;DHT22;3276;48.490;9.222;2023-07-28T00:05:11;15.60;38.70
6486;DHT22;3276;48.490;9.222;2023-07-28T00:07:37;15.60;38.90
6486;DHT22;3276;48.490;9.222;2023-07-28T00:10:03;15.50;39.50
6486;DHT22;3276;48.490;9.222;2023-07-28T00:12:28;15.50;38.90
6486;DHT22;3276;48.490;9.222;2023-07-28T00:14:54;15.50;39.50
6486;DHT22;3276;48.490;9.222;2023-07-28T00:17:19;15.50;39.70
6486;DHT22;3276;48.490;9.222;2023-07-28T00:19:45;15.40;40.40
6486;DHT22;3276;48.490;9.222;2023-07-28T00:22:10;15.40;41.00
6486;DHT22;3276;48.490;9.222;2023-07-28T00:24:36;15.40;41.00
6486;DHT22;3276;48.490;9.222;2023-07-28T00:27:01;15.40;40.50
6486;DHT22;3276;48.490;9.222;2023-07-28T00:29:27;15.40;41.80
6486;DHT22;3276;48.490;9.222;2023-07-28T00:31:52;15.30;42.00
6486;DHT22;3276;48.490;9.222;2023-07-28T00:34:18;15.40;42.80
6486;DHT22;3276;48.490;9.222;2023-07-28T00:36:44;15.40;42.90
6486;DHT22;3276;48.490;9.222;2023-07-28T00:39:09;15.40;43.70
6486;DHT22;3276;48.490;9.222;2023-07-28T00:41:35;15.30;43.20
6486;DHT22;3276;48.490;9.222;2023-07-28T00:44:00;15.30;43.70
6486;DHT22;3276;48.490;9.222;2023-07-28T00:46:26;15.30;44.50
6486;DHT22;3276;48.490;9.222;2023-07-28T00:48:52;15.30;43.20
6486;DHT22;3276;48.490;9.222;2023-07-28T00:51:17;15.20;44.10
6486;DHT22;3276;48.490;9.222;2023-07-28T00:53:43;15.30;49.90
6486;DHT22;3276;48.490;9.222;2023-07-28T00:56:10;15.20;43.30
6486;DHT22;3276;48.490;9.222;2023-07-28T00:58:36;15.30;44.60
6486;DHT22;3276;48.490;9.222;2023-07-28T01:01:02;15.30;45.40
6486;DHT22;3276;48.490;9.222;2023-07-28T01:03:28;15.20;46.60
6486;DHT22;3276;48.490;9.222;2023-07-28T01:06:37;15.20;46.70
6486;DHT22;3276;48.490;9.222;2023-07-28T01:09:03;15.20;47.90
6486;DHT22;3276;48.490;9.222;2023-07-28T01:11:29;15.20;49.70
6486;DHT22;3276;48.490;9.222;2023-07-28T01:13:55;15.20;45.40
6486;DHT22;3276;48.490;9.222;2023-07-28T01:16:21;15.20;46.10
6486;DHT22;3276;48.490;9.222;2023-07-28T01:18:47;15.20;46.90
6486;DHT22;3276;48.490;9.222;2023-07-28T01:21:31;15.20;46.00
6486;DHT22;3276;48.490;9.222;2023-07-28T01:24:19;15.10;42.80
6486;DHT22;3276;48.490;9.222;2023-07-28T01:26:48;15.10;43.60
6486;DHT22;3276;48.490;9.222;2023-07-28T01:29:14;15.10;44.60
6486;DHT22;3276;48.490;9.222;2023-07-28T01:31:41;15.10;45.40
6486;DHT22;3276;48.490;9.222;2023-07-28T01:34:06;15.00;45.80
6486;DHT22;3276;48.490;9.222;2023-07-28T01:36:32;15.00;45.80
6486;DHT22;3276;48.490;9.222;2023-07-28T01:38:57;15.00;47.30
6486;DHT22;3276;48.490;9.222;2023-07-28T01:41:23;15.00;48.40
6486;DHT22;3276;48.490;9.222;2023-07-28T01:43:48;15.00;48.40
6486;DHT22;3276;48.490;9.222;2023-07-28T01:46:14;15.10;48.30
6486;DHT22;3276;48.490;9.222;2023-07-28T01:48:39;15.00;48.80
6486;DHT22;3276;48.490;9.222;2023-07-28T01:51:05;15.10;48.00
6486;DHT22;3276;48.490;9.222;2023-07-28T01:53:31;15.10;48.30
6486;DHT22;3276;48.490;9.222;2023-07-28T01:55:56;15.10;48.70
6486;DHT22;3276;48.490;9.222;2023-07-28T01:58:22;15.10;49.00
6486;DHT22;3276;48.490;9.222;2023-07-28T02:00:47;15.10;48.10
6486;DHT22;3276;48.490;9.222;2023-07-28T02:03:13;15.10;48.50
6486;DHT22;3276;48.490;9.222;2023-07-28T02:05:38;15.10;49.10
6486;DHT22;3276;48.490;9.222;2023-07-28T02:08:04;15.10;48.70
6486;DHT22;3276;48.490;9.222;2023-07-28T02:10:30;15.20;51.60
6486;DHT22;3276;48.490;9.222;2023-07-28T02:12:56;15.20;45.90
6486;DHT22;3276;48.490;9.222;2023-07-28T02:15:21;15.20;45.80
6486;DHT22;3276;48.490;9.222;2023-07-28T02:17:47;15.20;44.90
6486;DHT22;3276;48.490;9.222;2023-07-28T02:20:12;15.20;45.50
6486;DHT22;3276;48.490;9.222;2023-07-28T02:22:40;15.20;45.70
6486;DHT22;3276;48.490;9.222;2023-07-28T02:25:06;15.10;45.30
6486;DHT22;3276;48.490;9.222;2023-07-28T02:27:32;15.10;46.60
6486;DHT22;3276;48.490;9.222;2023-07-28T02:29:58;15.10;44.50
6486;DHT22;3276;48.490;9.222;2023-07-28T02:32:23;15.10;47.70
6486;DHT22;3276;48.490;9.222;2023-07-28T02:34:49;15.10;46.90
6486;DHT22;3276;48.490;9.222;2023-07-28T02:37:15;15.10;47.30
6486;DHT22;3276;48.490;9.222;2023-07-28T02:39:41;15.00;47.50
6486;DHT22;3276;48.490;9.222;2023-07-28T02:42:06;15.10;47.00
6486;DHT22;3276;48.490;9.222;2023-07-28T02:44:32;15.10;41.30
6486;DHT22;3276;48.490;9.222;2023-07-28T02:46:58;15.10;41.70
6486;DHT22;3276;48.490;9.222;2023-07-28T02:49:23;15.10;40.70
6486;DHT22;3276;48.490;9.222;2023-07-28T02:51:49;15.10;41.60
6486;DHT22;3276;48.490;9.222;2023-07-28T02:54:14;15.00;43.40
6486;DHT22;3276;48.490;9.222;2023-07-28T02:56:40;15.00;43.90
6486;DHT22;3276;48.490;9.222;2023-07-28T02:59:05;14.90;42.40
6486;DHT22;3276;48.490;9.222;2023-07-28T03:01:31;15.00;44.60
6486;DHT22;3276;48.490;9.222;2023-07-28T03:04:03;14.90;44.60
6486;DHT22;3276;48.490;9.222;2023-07-28T03:06:29;14.90;43.60
6486;DHT22;3276;48.490;9.222;2023-07-28T03:08:55;14.90;45.10
6486;DHT22;3276;48.490;9.222;2023-07-28T03:11:20;14.90;45.70
6486;DHT22;3276;48.490;9.222;2023-07-28T03:13:46;14.90;45.00
6486;DHT22;3276;48.490;9.222;2023-07-28T03:16:11;14.80;45.70
6486;DHT22;3276;48.490;9.222;2023-07-28T03:18:37;14.80;43.30
6486;DHT22;3276;48.490;9.222;2023-07-28T03:21:03;14.80;44.10
6486;DHT22;3276;48.490;9.222;2023-07-28T03:23:28;14.80;46.30
6486;DHT22;3276;48.490;9.222;2023-07-28T03:25:54;14.90;47.20
6486;DHT22;3276;48.490;9.222;2023-07-28T03:28:19;14.90;45.40
6486;DHT22;3276;48.490;9.222;2023-07-28T03:30:45;14.90;46.80
6486;DHT22;3276;48.490;9.222;2023-07-28T03:33:11;15.00;45.80
6486;DHT22;3276;48.490;9.222;2023-07-28T03:35:36;15.10;45.90
6486;DHT22;3276;48.490;9.222;2023-07-28T03:38:02;15.20;42.70
6486;DHT22;3276;48.490;9.222;2023-07-28T03:40:28;15.30;44.00
6486;DHT22;3276;48.490;9.222;2023-07-28T03:42:53;15.40;42.60
6486;DHT22;3276;48.490;9.222;2023-07-28T03:45:19;15.50;42.70
6486;DHT22;3276;48.490;9.222;2023-07-28T03:47:45;15.60;42.10
6486;DHT22;3276;48.490;9.222;2023-07-28T03:50:10;15.70;41.50
6486;DHT22;3276;48.490;9.222;2023-07-28T03:52:36;15.70;40.70
6486;DHT22;3276;48.490;9.222;2023-07-28T03:55:02;15.70;40.50
6486;DHT22;3276;48.490;9.222;2023-07-28T03:57:27;15.70;39.40
6486;DHT22;3276;48.490;9.222;2023-07-28T03:59:53;15.80;39.90
6486;DHT22;3276;48.490;9.222;2023-07-28T04:02:18;15.90;40.20
6486;DHT22;3276;48.490;9.222;2023-07-28T04:04:44;15.90;40.10
6486;DHT22;3276;48.490;9.222;2023-07-28T04:07:09;16.00;37.50
6486;DHT22;3276;48.490;9.222;2023-07-28T04:09:35;16.00;36.30
6486;DHT22;3276;48.490;9.222;2023-07-28T04:12:00;16.10;36.40
6486;DHT22;3276;48.490;9.222;2023-07-28T04:14:26;16.20;36.20
6486;DHT22;3276;48.490;9.222;2023-07-28T04:16:52;16.30;35.10
6486;DHT22;3276;48.490;9.222;2023-07-28T04:19:17;16.40;35.30
6486;DHT22;3276;48.490;9.222;2023-07-28T04:21:43;16.50;35.20
6486;DHT22;3276;48.490;9.222;2023-07-28T04:24:09;16.60;35.60
6486;DHT22;3276;48.490;9.222;2023-07-28T04:26:35;16.70;32.90
6486;DHT22;3276;48.490;9.222;2023-07-28T04:29:01;16.80;31.70
6486;DHT22;3276;48.490;9.222;2023-07-28T04:31:26;17.00;31.50
6486;DHT22;3276;48.490;9.222;2023-07-28T04:33:52;17.10;29.80
6486;DHT22;3276;48.490;9.222;2023-07-28T04:36:18;17.30;28.00
6486;DHT22;3276;48.490;9.222;2023-07-28T04:38:43;17.30;28.00
6486;DHT22;3276;48.490;9.222;2023-07-28T04:41:09;17.30;27.60
6486;DHT22;3276;48.490;9.222;2023-07-28T04:43:34;17.30;27.00
6486;DHT22;3276;48.490;9.222;2023-07-28T04:46:00;17.30;27.20
6486;DHT22;3276;48.490;9.222;2023-07-28T04:48:26;17.50;26.40
6486;DHT22;3276;48.490;9.222;2023-07-28T04:50:52;17.60;25.90
6486;DHT22;3276;48.490;9.222;2023-07-28T04:53:18;17.60;25.70
6486;DHT22;3276;48.490;9.222;2023-07-28T04:55:43;17.60;25.50
6486;DHT22;3276;48.490;9.222;2023-07-28T04:58:09;17.70;25.60
6486;DHT22;3276;48.490;9.222;2023-07-28T05:00:34;17.70;25.50
6486;DHT22;3276;48.490;9.222;2023-07-28T05:03:00;17.80;25.90
6486;DHT22;3276;48.490;9.222;2023-07-28T05:05:25;17.80;26.70
6486;DHT22;3276;48.490;9.222;2023-07-28T05:07:51;17.90;26.70
6486;DHT22;3276;48.490;9.222;2023-07-28T05:10:16;18.00;25.00
6486;DHT22;3276;48.490;9.222;2023-07-28T05:12:42;18.00;24.90
6486;DHT22;3276;48.490;9.222;2023-07-28T05:15:08;18.10;24.60
6486;DHT22;3276;48.490;9.222;2023-07-28T05:17:37;18.10;25.20
6486;DHT22;3276;48.490;9.222;2023-07-28T05:20:03;18.10;25.50
6486;DHT22;3276;48.490;9.222;2023-07-28T05:22:29;18.10;27.20
6486;DHT22;3276;48.490;9.222;2023-07-28T05:24:54;18.00;26.30
6486;DHT22;3276;48.490;9.222;2023-07-28T05:27:20;18.00;25.50
6486;DHT22;3276;48.490;9.222;2023-07-28T05:29:45;18.00;25.20
6486;DHT22;3276;48.490;9.222;2023-07-28T05:32:11;18.00;25.80
6486;DHT22;3276;48.490;9.222;2023-07-28T05:34:36;17.90;24.20
6486;DHT22;3276;48.490;9.222;2023-07-28T05:37:02;18.00;23.80
6486;DHT22;3276;48.490;9.222;2023-07-28T05:39:28;18.00;23.90
6486;DHT22;3276;48.490;9.222;2023-07-28T05:41:53;18.00;23.80
6486;DHT22;3276;48.490;9.222;2023-07-28T05:44:19;18.00;23.80
6486;DHT22;3276;48.490;9.222;2023-07-28T05:46:44;18.10;22.80
6486;DHT22;3276;48.490;9.222;2023-07-28T05:49:11;18.10;22.50
6486;DHT22;3276;48.490;9.222;2023-07-28T05:51:36;18.10;22.70
6486;DHT22;3276;48.490;9.222;2023-07-28T05:54:02;18.20;22.90
6486;DHT22;3276;48.490;9.222;2023-07-28T05:56:27;18.20;23.20
6486;DHT22;3276;48.490;9.222;2023-07-28T05:58:53;18.30;24.40
6486;DHT22;3276;48.490;9.222;2023-07-28T06:01:18;18.40;25.60
6486;DHT22;3276;48.490;9.222;2023-07-28T06:03:45;18.40;25.10
6486;DHT22;3276;48.490;9.222;2023-07-28T06:06:10;18.40;25.30
6486;DHT22;3276;48.490;9.222;2023-07-28T06:08:36;18.50;25.30
6486;DHT22;3276;48.490;9.222;2023-07-28T06:11:05;18.60;25.60
6486;DHT22;3276;48.490;9.222;2023-07-28T06:13:31;18.60;25.80
6486;DHT22;3276;48.490;9.222;2023-07-28T06:15:58;18.60;26.90
6486;DHT22;3276;48.490;9.222;2023-07-28T06:18:24;18.70;27.30
6486;DHT22;3276;48.490;9.222;2023-07-28T06:20:50;18.80;26.50
6486;DHT22;3276;48.490;9.222;2023-07-28T06:23:16;18.80;26.40
6486;DHT22;3276;48.490;9.222;2023-07-28T06:25:41;18.90;25.60
6486;DHT22;3276;48.490;9.222;2023-07-28T06:28:10;19.10;25.50
6486;DHT22;3276;48.490;9.222;2023-07-28T06:30:36;19.30;23.80
6486;DHT22;3276;48.490;9.222;2023-07-28T06:33:03;19.50;21.00
6486;DHT22;3276;48.490;9.222;2023-07-28T06:35:28;19.70;20.70
6486;DHT22;3276;48.490;9.222;2023-07-28T06:37:54;19.80;18.80
6486;DHT22;3276;48.490;9.222;2023-07-28T06:40:20;19.70;19.10
6486;DHT22;3276;48.490;9.222;2023-07-28T06:42:45;19.60;19.70
6486;DHT22;3276;48.490;9.222;2023-07-28T06:45:11;19.40;20.60
6486;DHT22;3276;48.490;9.222;2023-07-28T06:47:37;19.40;21.70
6486;DHT22;3276;48.490;9.222;2023-07-28T06:50:03;19.40;22.40
6486;DHT22;3276;48.490;9.222;2023-07-28T06:52:30;19.30;23.20
6486;DHT22;3276;48.490;9.222;2023-07-28T06:54:56;19.10;24.00
6486;DHT22;3276;48.490;9.222;2023-07-28T06:57:21;19.30;24.20
6486;DHT22;3276;48.490;9.222;2023-07-28T06:59:48;19.40;23.90
6486;DHT22;3276;48.490;9.222;2023-07-28T07:02:13;19.50;26.20
6486;DHT22;3276;48.490;9.222;2023-07-28T07:04:39;19.50;22.40
6486;DHT22;3276;48.490;9.222;2023-07-28T07:07:05;19.30;20.20
6486;DHT22;3276;48.490;9.222;2023-07-28T07:09:30;19.40;21.90
6486;DHT22;3276;48.490;9.222;2023-07-28T07:11:56;19.70;20.90
6486;DHT22;3276;48.490;9.222;2023-07-28T07:14:21;19.80;19.90
6486;DHT22;3276;48.490;9.222;2023-07-28T07:16:48;20.00;19.80
6486;DHT22;3276;48.490;9.222;2023-07-28T07:19:14;20.30;19.80
6486;DHT22;3276;48.490;9.222;2023-07-28T07:21:41;20.50;17.90
6486;DHT22;3276;48.490;9.222;2023-07-28T07:24:07;20.80;16.30
6486;DHT22;3276;48.490;9.222;2023-07-28T07:26:32;20.90;15.10
6486;DHT22;3276;48.490;9.222;2023-07-28T07:28:58;21.00;14.40
6486;DHT22;3276;48.490;9.222;2023-07-28T07:31:24;21.20;15.40
6486;DHT22;3276;48.490;9.222;2023-07-28T07:33:50;21.50;13.40
6486;DHT22;3276;48.490;9.222;2023-07-28T07:36:17;21.90;11.90
6486;DHT22;3276;48.490;9.222;2023-07-28T07:38:43;22.30;12.60
6486;DHT22;3276;48.490;9.222;2023-07-28T07:41:11;22.50;9.30
6486;DHT22;3276;48.490;9.222;2023-07-28T07:43:38;22.80;9.50
6486;DHT22;3276;48.490;9.222;2023-07-28T07:46:04;22.80;7.60
6486;DHT22;3276;48.490;9.222;2023-07-28T07:48:29;22.80;7.20
6486;DHT22;3276;48.490;9.222;2023-07-28T07:50:55;22.80;7.00
6486;DHT22;3276;48.490;9.222;2023-07-28T07:53:21;22.80;5.80
6486;DHT22;3276;48.490;9.222;2023-07-28T07:55:46;22.80;6.30
6486;DHT22;3276;48.490;9.222;2023-07-28T07:58:13;22.80;7.00
6486;DHT22;3276;48.490;9.222;2023-07-28T08:00:38;22.80;5.70
6486;DHT22;3276;48.490;9.222;2023-07-28T08:03:04;22.40;6.70
6486;DHT22;3276;48.490;9.222;2023-07-28T08:05:30;22.10;8.20
6486;DHT22;3276;48.490;9.222;2023-07-28T08:07:56;22.40;7.90
6486;DHT22;3276;48.490;9.222;2023-07-28T08:10:22;22.40;7.60
6486;DHT22;3276;48.490;9.222;2023-07-28T08:12:48;22.60;7.80
6486;DHT22;3276;48.490;9.222;2023-07-28T08:15:14;22.90;6.50
6486;DHT22;3276;48.490;9.222;2023-07-28T08:17:40;23.00;5.40
6486;DHT22;3276;48.490;9.222;2023-07-28T08:20:07;23.40;3.60
6486;DHT22;3276;48.490;9.222;2023-07-28T08:22:33;23.90;4.40
6486;DHT22;3276;48.490;9.222;2023-07-28T08:24:58;24.60;1.50
6486;DHT22;3276;48.490;9.222;2023-07-28T08:27:24;25.20;1.00
6486;DHT22;3276;48.490;9.222;2023-07-28T08:29:49;25.80;1.00
6486;DHT22;3276;48.490;9.222;2023-07-28T08:32:15;26.10;1.00
6486;DHT22;3276;48.490;9.222;2023-07-28T08:34:41;26.70;1.00
6486;DHT22;3276;48.490;9.222;2023-07-28T08:37:06;26.70;1.00
6486;DHT22;3276;48.490;9.222;2023-07-28T08:39:32;26.60;1.00
6486;DHT22;3276;48.490;9.222;2023-07-28T08:42:02;26.50;1.00
6486;DHT22;3276;48.490;9.222;2023-07-28T08:44:32;26.50;1.00
6486;DHT22;3276;48.490;9.222;2023-07-28T08:47:02;27.90;1.00
6486;DHT22;3276;48.490;9.222;2023-07-28T08:49:29;28.70;1.00
6486;DHT22;3276;48.490;9.222;2023-07-28T08:52:00;30.00;1.00
6486;DHT22;3276;48.490;9.222;2023-07-28T08:54:26;30.00;1.00
6486;DHT22;3276;48.490;9.222;2023-07-28T08:56:52;29.20;1.00
6486;DHT22;3276;48.490;9.222;2023-07-28T08:59:22;29.00;1.00
6486;DHT22;3276;48.490;9.222;2023-07-28T09:01:50;29.00;1.00
6486;DHT22;3276;48.490;9.222;2023-07-28T09:04:16;28.70;1.00
6486;DHT22;3276;48.490;9.222;2023-07-28T09:06:45;27.90;1.00
6486;DHT22;3276;48.490;9.222;2023-07-28T09:09:11;27.40;1.00
6486;DHT22;3276;48.490;9.222;2023-07-28T09:11:48;27.60;1.00
6486;DHT22;3276;48.490;9.222;2023-07-28T09:14:16;27.80;1.00
6486;DHT22;3276;48.490;9.222;2023-07-28T09:16:45;28.00;1.00
6486;DHT22;3276;48.490;9.222;2023-07-28T09:19:11;28.00;1.00
6486;DHT22;3276;48.490;9.222;2023-07-28T09:21:38;28.00;1.00
6486;DHT22;3276;48.490;9.222;2023-07-28T09:24:06;27.50;1.00
6486;DHT22;3276;48.490;9.222;2023-07-28T09:26:45;27.40;1.00
6486;DHT22;3276;48.490;9.222;2023-07-28T09:29:18;26.50;1.00
6486;DHT22;3276;48.490;9.222;2023-07-28T09:31:49;26.00;1.00
6486;DHT22;3276;48.490;9.222;2023-07-28T09:34:25;26.30;1.00
6486;DHT22;3276;48.490;9.222;2023-07-28T09:36:53;26.80;1.00
6486;DHT22;3276;48.490;9.222;2023-07-28T09:39:20;27.00;1.00
6486;DHT22;3276;48.490;9.222;2023-07-28T09:41:46;27.20;1.00
6486;DHT22;3276;48.490;9.222;2023-07-28T09:44:12;27.20;1.00
6486;DHT22;3276;48.490;9.222;2023-07-28T09:46:58;27.30;1.00
6486;DHT22;3276;48.490;9.222;2023-07-28T09:49:35;27.50;1.00
6486;DHT22;3276;48.490;9.222;2023-07-28T09:52:04;28.30;1.00
6486;DHT22;3276;48.490;9.222;2023-07-28T09:54:30;28.90;1.00
6486;DHT22;3276;48.490;9.222;2023-07-28T09:56:59;29.40;1.00
6486;DHT22;3276;48.490;9.222;2023-07-28T09:59:38;29.50;1.00
6486;DHT22;3276;48.490;9.222;2023-07-28T10:02:05;28.90;1.00
6486;DHT22;3276;48.490;9.222;2023-07-28T10:04:32;29.20;1.00
6486;DHT22;3276;48.490;9.222;2023-07-28T10:06:57;29.60;1.00
6486;DHT22;3276;48.490;9.222;2023-07-28T10:09:27;29.20;1.00
6486;DHT22;3276;48.490;9.222;2023-07-28T10:11:54;28.40;1.00
6486;DHT22;3276;48.490;9.222;2023-07-28T10:14:28;28.00;1.00
6486;DHT22;3276;48.490;9.222;2023-07-28T10:16:57;27.40;1.00
6486;DHT22;3276;48.490;9.222;2023-07-28T10:19:25;27.10;1.00
6486;DHT22;3276;48.490;9.222;2023-07-28T10:21:59;26.80;1.00
6486;DHT22;3276;48.490;9.222;2023-07-28T10:24:54;26.50;1.00
6486;DHT22;3276;48.490;9.222;2023-07-28T10:27:45;26.30;1.00
6486;DHT22;3276;48.490;9.222;2023-07-28T10:30:13;26.70;1.00
6486;DHT22;3276;48.490;9.222;2023-07-28T10:32:40;27.00;1.00
6486;DHT22;3276;48.490;9.222;2023-07-28T10:35:08;27.30;1.00
6486;DHT22;3276;48.490;9.222;2023-07-28T10:37:35;27.70;1.00
6486;DHT22;3276;48.490;9.222;2023-07-28T10:40:29;27.70;1.00
6486;DHT22;3276;48.490;9.222;2023-07-28T10:42:56;27.40;1.00
6486;DHT22;3276;48.490;9.222;2023-07-28T10:45:23;27.20;1.00
6486;DHT22;3276;48.490;9.222;2023-07-28T10:47:49;27.40;1.00
6486;DHT22;3276;48.490;9.222;2023-07-28T10:50:15;27.10;1.00
6486;DHT22;3276;48.490;9.222;2023-07-28T10:52:41;27.10;1.00
6486;DHT22;3276;48.490;9.222;2023-07-28T10:55:14;27.80;1.00
6486;DHT22;3276;48.490;9.222;2023-07-28T10:57:44;28.30;1.00
6486;DHT22;3276;48.490;9.222;2023-07-28T11:00:11;28.00;1.00
6486;DHT22;3276;48.490;9.222;2023-07-28T11:02:53;27.60;1.00
6486;DHT22;3276;48.490;9.222;2023-07-28T11:05:25;27.80;1.00
6486;DHT22;3276;48.490;9.222;2023-07-28T11:07:54;28.20;1.00
6486;DHT22;3276;48.490;9.222;2023-07-28T11:10:19;28.40;1.00
6486;DHT22;3276;48.490;9.222;2023-07-28T11:12:48;28.90;1.00
6486;DHT22;3276;48.490;9.222;2023-07-28T11:15:16;28.90;1.00
6486;DHT22;3276;48.490;9.222;2023-07-28T11:17:44;28.70;1.00
6486;DHT22;3276;48.490;9.222;2023-07-28T11:20:22;28.40;1.00
6486;DHT22;3276;48.490;9.222;2023-07-28T11:22:57;28.50;1.00
6486;DHT22;3276;48.490;9.222;2023-07-28T11:25:24;28.00;1.00
6486;DHT22;3276;48.490;9.222;2023-07-28T11:27:50;27.10;1.00
6486;DHT22;3276;48.490;9.222;2023-07-28T11:30:17;26.60;1.00
6486;DHT22;3276;48.490;9.222;2023-07-28T11:32:47;26.40;1.00
6486;DHT22;3276;48.490;9.222;2023-07-28T11:35:14;25.70;1.00
6486;DHT22;3276;48.490;9.222;2023-07-28T11:37:42;25.10;1.00
6486;DHT22;3276;48.490;9.222;2023-07-28T11:40:10;24.60;1.00
6486;DHT22;3276;48.490;9.222;2023-07-28T11:42:47;23.90;1.00
6486;DHT22;3276;48.490;9.222;2023-07-28T11:45:14;23.30;1.00
6486;DHT22;3276;48.490;9.222;2023-07-28T11:50:24;22.70;3.00
6486;DHT22;3276;48.490;9.222;2023-07-28T11:52:49;22.70;5.80
6486;DHT22;3276;48.490;9.222;2023-07-28T11:55:15;22.90;4.90
6486;DHT22;3276;48.490;9.222;2023-07-28T11:57:42;23.00;3.60
6486;DHT22;3276;48.490;9.222;2023-07-28T12:00:09;23.50;2.10
6486;DHT22;3276;48.490;9.222;2023-07-28T12:02:35;24.10;1.10
6486;DHT22;3276;48.490;9.222;2023-07-28T12:05:01;24.40;1.30
6486;DHT22;3276;48.490;9.222;2023-07-28T12:07:33;24.60;1.40
6486;DHT22;3276;48.490;9.222;2023-07-28T12:10:06;24.90;1.00
6486;DHT22;3276;48.490;9.222;2023-07-28T12:12:42;25.20;1.10
6486;DHT22;3276;48.490;9.222;2023-07-28T12:15:27;25.60;1.40
6486;DHT22;3276;48.490;9.222;2023-07-28T12:18:04;26.40;1.00
6486;DHT22;3276;48.490;9.222;2023-07-28T12:20:57;26.70;1.00
6486;DHT22;3276;48.490;9.222;2023-07-28T12:23:23;26.00;1.00
6486;DHT22;3276;48.490;9.222;2023-07-28T12:25:49;25.90;1.00
6486;DHT22;3276;48.490;9.222;2023-07-28T12:28:16;25.70;1.00
6486;DHT22;3276;48.490;9.222;2023-07-28T12:30:42;25.50;1.00
6486;DHT22;3276;48.490;9.222;2023-07-28T12:33:08;25.20;1.00
6486;DHT22;3276;48.490;9.222;2023-07-28T12:35:35;24.90;1.00
6486;DHT22;3276;48.490;9.222;2023-07-28T12:38:02;24.70;1.00
6486;DHT22;3276;48.490;9.222;2023-07-28T12:40:30;24.70;1.00
6486;DHT22;3276;48.490;9.222;2023-07-28T12:42:56;24.70;1.00
6486;DHT22;3276;48.490;9.222;2023-07-28T12:45:23;24.90;1.00
6486;DHT22;3276;48.490;9.222;2023-07-28T12:47:53;25.40;1.00
6486;DHT22;3276;48.490;9.222;2023-07-28T12:50:20;25.80;1.00
6486;DHT22;3276;48.490;9.222;2023-07-28T12:52:47;26.10;1.00
6486;DHT22;3276;48.490;9.222;2023-07-28T12:55:12;26.60;1.00
6486;DHT22;3276;48.490;9.222;2023-07-28T12:57:38;26.70;1.00
6486;DHT22;3276;48.490;9.222;2023-07-28T13:00:04;26.70;1.00
6486;DHT22;3276;48.490;9.222;2023-07-28T13:02:40;26.80;1.00
6486;DHT22;3276;48.490;9.222;2023-07-28T13:05:07;27.00;1.00
6486;DHT22;3276;48.490;9.222;2023-07-28T13:07:34;27.10;1.00
6486;DHT22;3276;48.490;9.222;2023-07-28T13:10:00;27.10;1.00
6486;DHT22;3276;48.490;9.222;2023-07-28T13:12:25;27.10;1.00
6486;DHT22;3276;48.490;9.222;2023-07-28T13:14:51;27.40;1.00
6486;DHT22;3276;48.490;9.222;2023-07-28T13:17:16;27.60;1.00
6486;DHT22;3276;48.490;9.222;2023-07-28T13:19:42;27.50;1.00
6486;DHT22;3276;48.490;9.222;2023-07-28T13:22:08;27.10;1.00
6486;DHT22;3276;48.490;9.222;2023-07-28T13:24:33;26.80;1.00
6486;DHT22;3276;48.490;9.222;2023-07-28T13:26:59;26.60;1.00
6486;DHT22;3276;48.490;9.222;2023-07-28T13:29:24;26.50;1.00
6486;DHT22;3276;48.490;9.222;2023-07-28T13:31:50;26.40;1.00
6486;DHT22;3276;48.490;9.222;2023-07-28T13:34:15;26.50;1.00
6486;DHT22;3276;48.490;9.222;2023-07-28T13:36:41;26.50;1.00
6486;DHT22;3276;48.490;9.222;2023-07-28T13:39:08;26.40;1.00
6486;DHT22;3276;48.490;9.222;2023-07-28T13:41:34;26.30;1.00
6486;DHT22;3276;48.490;9.222;2023-07-28T13:43:59;26.00;1.00
6486;DHT22;3276;48.490;9.222;2023-07-28T13:46:25;25.30;1.00
6486;DHT22;3276;48.490;9.222;2023-07-28T13:48:50;24.90;1.00
6486;DHT22;3276;48.490;9.222;2023-07-28T13:51:16;24.40;2.50
6486;DHT22;3276;48.490;9.222;2023-07-28T13:53:41;24.10;4.00
6486;DHT22;3276;48.490;9.222;2023-07-28T13:56:12;23.90;5.60
6486;DHT22;3276;48.490;9.222;2023-07-28T13:58:40;23.50;3.50
6486;DHT22;3276;48.490;9.222;2023-07-28T14:01:06;23.20;2.70
6486;DHT22;3276;48.490;9.222;2023-07-28T14:03:31;22.80;1.00
6486;DHT22;3276;48.490;9.222;2023-07-28T14:05:57;22.60;1.00
6486;DHT22;3276;48.490;9.222;2023-07-28T14:08:23;22.50;1.00
6486;DHT22;3276;48.490;9.222;2023-07-28T14:10:49;22.50;1.00
6486;DHT22;3276;48.490;9.222;2023-07-28T14:13:14;22.60;1.00
6486;DHT22;3276;48.490;9.222;2023-07-28T14:15:40;22.50;1.00
6486;DHT22;3276;48.490;9.222;2023-07-28T14:18:06;22.60;1.00
6486;DHT22;3276;48.490;9.222;2023-07-28T14:20:31;22.80;1.00
6486;DHT22;3276;48.490;9.222;2023-07-28T14:22:59;23.00;1.00
6486;DHT22;3276;48.490;9.222;2023-07-28T14:25:26;23.20;1.00
6486;DHT22;3276;48.490;9.222;2023-07-28T14:27:51;23.40;1.00
6486;DHT22;3276;48.490;9.222;2023-07-28T14:30:17;23.70;1.00
6486;DHT22;3276;48.490;9.222;2023-07-28T14:32:42;23.80;1.00
6486;DHT22;3276;48.490;9.222;2023-07-28T14:35:08;23.90;1.00
6486;DHT22;3276;48.490;9.222;2023-07-28T14:37:33;24.10;1.00
6486;DHT22;3276;48.490;9.222;2023-07-28T14:39:59;24.40;1.00
6486;DHT22;3276;48.490;9.222;2023-07-28T14:42:24;24.50;1.00
6486;DHT22;3276;48.490;9.222;2023-07-28T14:44:50;24.60;1.00
6486;DHT22;3276;48.490;9.222;2023-07-28T14:47:15;24.50;1.00
6486;DHT22;3276;48.490;9.222;2023-07-28T14:49:41;24.50;1.00
6486;DHT22;3276;48.490;9.222;2023-07-28T14:52:07;24.80;1.00
6486;DHT22;3276;48.490;9.222;2023-07-28T14:54:32;25.60;1.00
6486;DHT22;3276;48.490;9.222;2023-07-28T14:56:58;26.20;1.00
6486;DHT22;3276;48.490;9.222;2023-07-28T14:59:23;26.00;1.00
6486;DHT22;3276;48.490;9.222;2023-07-28T15:01:49;25.70;1.00
6486;DHT22;3276;48.490;9.222;2023-07-28T15:04:14;25.70;1.00
6486;DHT22;3276;48.490;9.222;2023-07-28T15:06:40;25.50;1.00
6486;DHT22;3276;48.490;9.222;2023-07-28T15:09:06;24.90;1.00
6486;DHT22;3276;48.490;9.222;2023-07-28T15:11:32;25.00;1.00
6486;DHT22;3276;48.490;9.222;2023-07-28T15:13:57;24.90;1.00
6486;DHT22;3276;48.490;9.222;2023-07-28T15:16:23;24.60;1.00
6486;DHT22;3276;48.490;9.222;2023-07-28T15:18:49;24.60;1.00
6486;DHT22;3276;48.490;9.222;2023-07-28T15:21:14;24.70;1.00
6486;DHT22;3276;48.490;9.222;2023-07-28T15:23:40;24.80;1.00
6486;DHT22;3276;48.490;9.222;2023-07-28T15:26:05;25.00;1.00
6486;DHT22;3276;48.490;9.222;2023-07-28T15:28:31;25.20;1.00
6486;DHT22;3276;48.490;9.222;2023-07-28T15:30:56;25.40;1.00
6486;DHT22;3276;48.490;9.222;2023-07-28T15:33:22;25.40;1.00
6486;DHT22;3276;48.490;9.222;2023-07-28T15:35:54;25.60;1.00
6486;DHT22;3276;48.490;9.222;2023-07-28T15:38:20;25.60;1.00
6486;DHT22;3276;48.490;9.222;2023-07-28T15:40:45;25.40;1.00
6486;DHT22;3276;48.490;9.222;2023-07-28T15:43:11;25.10;1.00
6486;DHT22;3276;48.490;9.222;2023-07-28T15:45:37;25.00;1.00
6486;DHT22;3276;48.490;9.222;2023-07-28T15:48:02;24.60;1.00
6486;DHT22;3276;48.490;9.222;2023-07-28T15:50:28;24.70;1.00
6486;DHT22;3276;48.490;9.222;2023-07-28T15:52:53;24.60;1.00
6486;DHT22;3276;48.490;9.222;2023-07-28T15:55:19;24.50;1.00
6486;DHT22;3276;48.490;9.222;2023-07-28T15:57:45;24.70;1.00
6486;DHT22;3276;48.490;9.222;2023-07-28T16:00:11;24.70;1.00
6486;DHT22;3276;48.490;9.222;2023-07-28T16:02:39;24.50;1.00
6486;DHT22;3276;48.490;9.222;2023-07-28T16:05:06;24.50;1.00
6486;DHT22;3276;48.490;9.222;2023-07-28T16:07:31;24.60;1.00
6486;DHT22;3276;48.490;9.222;2023-07-28T16:09:58;24.60;1.40